sensor_id;sensor_type;location;lat;lon;timestamp;P1;durP1;ratioP1;P2;durP2;ratioP2
32826;SDS011;51059;42.058;27.986;2022-12-07T00:01:35;12.57;;;9.03;;
32826;SDS011;51059;42.058;27.986;2022-12-07T00:04:06;11.73;;;7.57;;
32826;SDS011;51059;42.058;27.986;2022-12-07T00:06:33;14.67;;;8.23;;
32826;SDS011;51059;42.058;27.986;2022-12-07T00:09:00;8.53;;;6.47;;
32826;SDS011;51059;42.058;27.986;2022-12-07T00:11:26;9.70;;;5.20;;
32826;SDS011;51059;42.058;27.986;2022-12-07T00:13:55;8.37;;;5.53;;
32826;SDS011;51059;42.058;27.986;2022-12-07T00:16:23;6.63;;;3.27;;
32826;SDS011;51059;42.058;27.986;2022-12-07T00:18:50;7.20;;;4.23;;
32826;SDS011;51059;42.058;27.986;2022-12-07T00:21:19;4.40;;;3.37;;
32826;SDS011;51059;42.058;27.986;2022-12-07T00:23:47;6.40;;;3.40;;
32826;SDS011;51059;42.058;27.986;2022-12-07T00:26:17;5.00;;;2.83;;
32826;SDS011;51059;42.058;27.986;2022-12-07T00:28:47;8.77;;;3.60;;
32826;SDS011;51059;42.058;27.986;2022-12-07T00:31:14;5.90;;;3.30;;
32826;SDS011;51059;42.058;27.986;2022-12-07T00:33:41;8.30;;;3.50;;
32826;SDS011;51059;42.058;27.986;2022-12-07T00:36:11;4.50;;;2.83;;
32826;SDS011;51059;42.058;27.986;2022-12-07T00:38:41;5.53;;;3.63;;
32826;SDS011;51059;42.058;27.986;2022-12-07T00:41:10;6.07;;;3.30;;
32826;SDS011;51059;42.058;27.986;2022-12-07T00:43:43;5.97;;;3.30;;
32826;SDS011;51059;42.058;27.986;2022-12-07T00:46:10;7.10;;;2.43;;
32826;SDS011;51059;42.058;27.986;2022-12-07T00:48:37;3.07;;;2.40;;
32826;SDS011;51059;42.058;27.986;2022-12-07T00:51:03;3.97;;;2.80;;
32826;SDS011;51059;42.058;27.986;2022-12-07T00:53:29;10.23;;;5.77;;
32826;SDS011;51059;42.058;27.986;2022-12-07T00:55:55;13.37;;;6.53;;
32826;SDS011;51059;42.058;27.986;2022-12-07T00:58:21;13.43;;;7.43;;
32826;SDS011;51059;42.058;27.986;2022-12-07T01:00:47;9.70;;;4.53;;
32826;SDS011;51059;42.058;27.986;2022-12-07T01:03:13;11.77;;;6.80;;
32826;SDS011;51059;42.058;27.986;2022-12-07T01:05:40;7.33;;;4.43;;
32826;SDS011;51059;42.058;27.986;2022-12-07T01:08:14;10.83;;;5.30;;
32826;SDS011;51059;42.058;27.986;2022-12-07T01:10:40;13.73;;;7.90;;
32826;SDS011;51059;42.058;27.986;2022-12-07T01:13:05;11.47;;;7.37;;
32826;SDS011;51059;42.058;27.986;2022-12-07T01:15:31;11.37;;;6.67;;
32826;SDS011;51059;42.058;27.986;2022-12-07T01:17:56;11.17;;;6.03;;
32826;SDS011;51059;42.058;27.986;2022-12-07T01:20:22;12.10;;;7.13;;
32826;SDS011;51059;42.058;27.986;2022-12-07T01:22:47;9.43;;;5.80;;
32826;SDS011;51059;42.058;27.986;2022-12-07T01:25:13;15.70;;;7.90;;
32826;SDS011;51059;42.058;27.986;2022-12-07T01:27:39;12.70;;;7.23;;
32826;SDS011;51059;42.058;27.986;2022-12-07T01:30:05;10.40;;;4.10;;
32826;SDS011;51059;42.058;27.986;2022-12-07T01:32:31;15.13;;;7.57;;
32826;SDS011;51059;42.058;27.986;2022-12-07T01:34:57;8.90;;;5.00;;
32826;SDS011;51059;42.058;27.986;2022-12-07T01:37:23;9.77;;;4.10;;
32826;SDS011;51059;42.058;27.986;2022-12-07T01:39:49;12.40;;;7.17;;
32826;SDS011;51059;42.058;27.986;2022-12-07T01:42:15;11.40;;;5.33;;
32826;SDS011;51059;42.058;27.986;2022-12-07T01:45:14;7.10;;;4.83;;
32826;SDS011;51059;42.058;27.986;2022-12-07T01:47:52;4.60;;;3.00;;
32826;SDS011;51059;42.058;27.986;2022-12-07T01:50:19;7.83;;;5.43;;
32826;SDS011;51059;42.058;27.986;2022-12-07T01:52:45;6.43;;;3.23;;
32826;SDS011;51059;42.058;27.986;2022-12-07T01:55:15;4.80;;;3.40;;
32826;SDS011;51059;42.058;27.986;2022-12-07T01:57:45;6.93;;;3.43;;
32826;SDS011;51059;42.058;27.986;2022-12-07T02:00:13;5.60;;;3.17;;
32826;SDS011;51059;42.058;27.986;2022-12-07T02:02:44;3.93;;;3.00;;
32826;SDS011;51059;42.058;27.986;2022-12-07T02:05:12;5.73;;;2.80;;
32826;SDS011;51059;42.058;27.986;2022-12-07T02:07:38;4.27;;;2.70;;
32826;SDS011;51059;42.058;27.986;2022-12-07T02:12:44;4.50;;;2.50;;
32826;SDS011;51059;42.058;27.986;2022-12-07T02:15:10;2.83;;;2.40;;
32826;SDS011;51059;42.058;27.986;2022-12-07T02:20:33;4.30;;;2.47;;
32826;SDS011;51059;42.058;27.986;2022-12-07T02:23:18;5.03;;;2.50;;
32826;SDS011;51059;42.058;27.986;2022-12-07T02:26:02;3.97;;;2.50;;
32826;SDS011;51059;42.058;27.986;2022-12-07T02:28:33;3.80;;;2.20;;
32826;SDS011;51059;42.058;27.986;2022-12-07T02:31:33;7.67;;;2.60;;
32826;SDS011;51059;42.058;27.986;2022-12-07T02:33:57;3.53;;;2.60;;
32826;SDS011;51059;42.058;27.986;2022-12-07T02:36:30;7.33;;;2.60;;
32826;SDS011;51059;42.058;27.986;2022-12-07T02:39:18;2.63;;;2.43;;
32826;SDS011;51059;42.058;27.986;2022-12-07T02:41:51;5.47;;;2.50;;
32826;SDS011;51059;42.058;27.986;2022-12-07T02:44:23;6.97;;;2.83;;
32826;SDS011;51059;42.058;27.986;2022-12-07T02:46:52;3.67;;;2.40;;
32826;SDS011;51059;42.058;27.986;2022-12-07T02:49:21;5.83;;;2.67;;
32826;SDS011;51059;42.058;27.986;2022-12-07T02:51:48;3.43;;;2.53;;
32826;SDS011;51059;42.058;27.986;2022-12-07T02:54:15;5.97;;;2.40;;
32826;SDS011;51059;42.058;27.986;2022-12-07T03:07:55;5.77;;;3.00;;
32826;SDS011;51059;42.058;27.986;2022-12-07T03:10:48;5.50;;;2.70;;
32826;SDS011;51059;42.058;27.986;2022-12-07T03:13:44;6.20;;;2.97;;
32826;SDS011;51059;42.058;27.986;2022-12-07T03:16:27;5.63;;;2.70;;
32826;SDS011;51059;42.058;27.986;2022-12-07T03:18:56;6.60;;;3.20;;
32826;SDS011;51059;42.058;27.986;2022-12-07T03:21:28;5.60;;;3.00;;
32826;SDS011;51059;42.058;27.986;2022-12-07T03:24:00;4.90;;;3.07;;
32826;SDS011;51059;42.058;27.986;2022-12-07T03:26:36;4.77;;;3.30;;
32826;SDS011;51059;42.058;27.986;2022-12-07T03:29:07;7.40;;;3.40;;
32826;SDS011;51059;42.058;27.986;2022-12-07T03:31:38;5.67;;;3.20;;
32826;SDS011;51059;42.058;27.986;2022-12-07T03:34:07;5.00;;;2.90;;
32826;SDS011;51059;42.058;27.986;2022-12-07T03:36:48;6.33;;;3.00;;
32826;SDS011;51059;42.058;27.986;2022-12-07T03:39:22;4.57;;;3.37;;
32826;SDS011;51059;42.058;27.986;2022-12-07T03:41:49;4.57;;;3.40;;
32826;SDS011;51059;42.058;27.986;2022-12-07T03:44:16;7.30;;;3.27;;
32826;SDS011;51059;42.058;27.986;2022-12-07T03:46:43;4.23;;;3.47;;
32826;SDS011;51059;42.058;27.986;2022-12-07T03:49:19;6.80;;;3.53;;
32826;SDS011;51059;42.058;27.986;2022-12-07T03:51:51;4.63;;;3.10;;
32826;SDS011;51059;42.058;27.986;2022-12-07T03:57:07;4.53;;;3.50;;
32826;SDS011;51059;42.058;27.986;2022-12-07T03:59:33;4.63;;;3.30;;
32826;SDS011;51059;42.058;27.986;2022-12-07T04:02:02;6.23;;;3.50;;
32826;SDS011;51059;42.058;27.986;2022-12-07T04:04:29;5.97;;;3.50;;
32826;SDS011;51059;42.058;27.986;2022-12-07T04:06:55;4.27;;;3.30;;
32826;SDS011;51059;42.058;27.986;2022-12-07T04:09:21;6.07;;;3.50;;
32826;SDS011;51059;42.058;27.986;2022-12-07T04:11:47;7.80;;;3.60;;
32826;SDS011;51059;42.058;27.986;2022-12-07T04:14:12;5.57;;;3.40;;
32826;SDS011;51059;42.058;27.986;2022-12-07T04:16:54;7.20;;;3.60;;
32826;SDS011;51059;42.058;27.986;2022-12-07T04:19:25;4.57;;;3.30;;
32826;SDS011;51059;42.058;27.986;2022-12-07T04:21:52;5.87;;;3.60;;
32826;SDS011;51059;42.058;27.986;2022-12-07T04:24:18;6.07;;;3.73;;
32826;SDS011;51059;42.058;27.986;2022-12-07T04:26:44;7.40;;;3.40;;
32826;SDS011;51059;42.058;27.986;2022-12-07T04:29:10;11.43;;;4.03;;
32826;SDS011;51059;42.058;27.986;2022-12-07T04:31:37;4.67;;;3.33;;
32826;SDS011;51059;42.058;27.986;2022-12-07T04:34:03;4.07;;;3.50;;
32826;SDS011;51059;42.058;27.986;2022-12-07T04:36:29;9.30;;;3.63;;
32826;SDS011;51059;42.058;27.986;2022-12-07T04:38:55;7.80;;;3.50;;
32826;SDS011;51059;42.058;27.986;2022-12-07T04:41:21;8.57;;;3.67;;
32826;SDS011;51059;42.058;27.986;2022-12-07T04:43:56;6.00;;;4.07;;
32826;SDS011;51059;42.058;27.986;2022-12-07T04:46:24;5.63;;;3.97;;
32826;SDS011;51059;42.058;27.986;2022-12-07T04:48:50;5.57;;;3.97;;
32826;SDS011;51059;42.058;27.986;2022-12-07T04:51:18;5.33;;;3.70;;
32826;SDS011;51059;42.058;27.986;2022-12-07T04:53:46;5.83;;;3.37;;
32826;SDS011;51059;42.058;27.986;2022-12-07T04:56:12;6.23;;;3.60;;
32826;SDS011;51059;42.058;27.986;2022-12-07T04:58:39;5.57;;;3.80;;
32826;SDS011;51059;42.058;27.986;2022-12-07T05:01:04;6.83;;;3.60;;
32826;SDS011;51059;42.058;27.986;2022-12-07T05:03:30;5.43;;;3.67;;
32826;SDS011;51059;42.058;27.986;2022-12-07T05:05:56;7.03;;;4.50;;
32826;SDS011;51059;42.058;27.986;2022-12-07T05:08:21;10.03;;;6.67;;
32826;SDS011;51059;42.058;27.986;2022-12-07T05:10:48;12.00;;;6.00;;
32826;SDS011;51059;42.058;27.986;2022-12-07T05:13:14;9.60;;;5.60;;
32826;SDS011;51059;42.058;27.986;2022-12-07T05:15:40;8.60;;;4.90;;
32826;SDS011;51059;42.058;27.986;2022-12-07T05:18:06;8.60;;;5.07;;
32826;SDS011;51059;42.058;27.986;2022-12-07T05:20:32;9.93;;;6.00;;
32826;SDS011;51059;42.058;27.986;2022-12-07T05:22:57;11.87;;;6.73;;
32826;SDS011;51059;42.058;27.986;2022-12-07T05:25:23;9.53;;;6.60;;
32826;SDS011;51059;42.058;27.986;2022-12-07T05:27:49;9.07;;;5.57;;
32826;SDS011;51059;42.058;27.986;2022-12-07T05:30:15;5.93;;;4.97;;
32826;SDS011;51059;42.058;27.986;2022-12-07T05:32:40;10.67;;;5.23;;
32826;SDS011;51059;42.058;27.986;2022-12-07T05:35:06;9.13;;;4.80;;
32826;SDS011;51059;42.058;27.986;2022-12-07T05:37:32;8.73;;;5.20;;
32826;SDS011;51059;42.058;27.986;2022-12-07T05:39:57;8.17;;;4.63;;
32826;SDS011;51059;42.058;27.986;2022-12-07T05:42:23;6.53;;;5.03;;
32826;SDS011;51059;42.058;27.986;2022-12-07T05:44:49;11.50;;;5.87;;
32826;SDS011;51059;42.058;27.986;2022-12-07T05:47:14;9.03;;;4.50;;
32826;SDS011;51059;42.058;27.986;2022-12-07T05:49:40;7.27;;;4.20;;
32826;SDS011;51059;42.058;27.986;2022-12-07T05:52:06;4.87;;;3.50;;
32826;SDS011;51059;42.058;27.986;2022-12-07T05:54:31;6.63;;;3.80;;
32826;SDS011;51059;42.058;27.986;2022-12-07T05:56:57;4.77;;;3.70;;
32826;SDS011;51059;42.058;27.986;2022-12-07T05:59:23;6.33;;;3.73;;
32826;SDS011;51059;42.058;27.986;2022-12-07T06:01:59;6.50;;;4.27;;
32826;SDS011;51059;42.058;27.986;2022-12-07T06:04:27;7.33;;;4.47;;
32826;SDS011;51059;42.058;27.986;2022-12-07T06:06:54;7.83;;;4.67;;
32826;SDS011;51059;42.058;27.986;2022-12-07T06:09:20;10.90;;;5.50;;
32826;SDS011;51059;42.058;27.986;2022-12-07T06:11:47;9.20;;;5.83;;
32826;SDS011;51059;42.058;27.986;2022-12-07T06:14:31;8.90;;;5.90;;
32826;SDS011;51059;42.058;27.986;2022-12-07T06:16:57;8.90;;;5.07;;
32826;SDS011;51059;42.058;27.986;2022-12-07T06:19:23;9.83;;;4.97;;
32826;SDS011;51059;42.058;27.986;2022-12-07T06:21:49;13.30;;;5.87;;
32826;SDS011;51059;42.058;27.986;2022-12-07T06:24:15;13.10;;;7.37;;
32826;SDS011;51059;42.058;27.986;2022-12-07T06:26:42;9.90;;;5.23;;
32826;SDS011;51059;42.058;27.986;2022-12-07T06:29:07;11.10;;;4.90;;
32826;SDS011;51059;42.058;27.986;2022-12-07T06:31:33;10.23;;;5.07;;
32826;SDS011;51059;42.058;27.986;2022-12-07T06:34:00;7.97;;;5.90;;
32826;SDS011;51059;42.058;27.986;2022-12-07T06:36:27;9.13;;;5.27;;
32826;SDS011;51059;42.058;27.986;2022-12-07T06:38:53;5.57;;;3.97;;
32826;SDS011;51059;42.058;27.986;2022-12-07T06:41:18;7.43;;;4.70;;
32826;SDS011;51059;42.058;27.986;2022-12-07T06:43:44;8.00;;;4.57;;
32826;SDS011;51059;42.058;27.986;2022-12-07T06:46:10;7.70;;;4.90;;
32826;SDS011;51059;42.058;27.986;2022-12-07T06:48:35;8.23;;;4.67;;
32826;SDS011;51059;42.058;27.986;2022-12-07T06:51:01;8.47;;;4.70;;
32826;SDS011;51059;42.058;27.986;2022-12-07T06:53:26;6.03;;;4.70;;
32826;SDS011;51059;42.058;27.986;2022-12-07T06:55:52;7.63;;;5.00;;
32826;SDS011;51059;42.058;27.986;2022-12-07T06:58:17;7.37;;;4.00;;
32826;SDS011;51059;42.058;27.986;2022-12-07T07:00:44;9.83;;;4.97;;
32826;SDS011;51059;42.058;27.986;2022-12-07T07:03:09;8.47;;;5.43;;
32826;SDS011;51059;42.058;27.986;2022-12-07T07:05:35;6.80;;;4.40;;
32826;SDS011;51059;42.058;27.986;2022-12-07T07:08:01;7.53;;;4.40;;
32826;SDS011;51059;42.058;27.986;2022-12-07T07:10:27;7.13;;;4.63;;
32826;SDS011;51059;42.058;27.986;2022-12-07T07:12:53;8.40;;;4.37;;
32826;SDS011;51059;42.058;27.986;2022-12-07T07:15:18;7.27;;;4.33;;
32826;SDS011;51059;42.058;27.986;2022-12-07T07:17:44;5.87;;;3.80;;
32826;SDS011;51059;42.058;27.986;2022-12-07T07:20:10;8.20;;;4.43;;
32826;SDS011;51059;42.058;27.986;2022-12-07T07:22:36;14.27;;;5.17;;
32826;SDS011;51059;42.058;27.986;2022-12-07T07:25:01;10.33;;;5.70;;
32826;SDS011;51059;42.058;27.986;2022-12-07T07:27:27;5.83;;;4.40;;
32826;SDS011;51059;42.058;27.986;2022-12-07T07:29:53;5.40;;;3.80;;
32826;SDS011;51059;42.058;27.986;2022-12-07T07:32:18;7.43;;;4.27;;
32826;SDS011;51059;42.058;27.986;2022-12-07T07:34:44;9.83;;;5.50;;
32826;SDS011;51059;42.058;27.986;2022-12-07T07:37:10;11.30;;;6.10;;
32826;SDS011;51059;42.058;27.986;2022-12-07T07:39:37;8.33;;;5.23;;
32826;SDS011;51059;42.058;27.986;2022-12-07T07:42:03;5.83;;;4.10;;
32826;SDS011;51059;42.058;27.986;2022-12-07T07:44:29;6.90;;;4.30;;
32826;SDS011;51059;42.058;27.986;2022-12-07T07:46:54;7.37;;;4.60;;
32826;SDS011;51059;42.058;27.986;2022-12-07T07:49:20;8.47;;;5.00;;
32826;SDS011;51059;42.058;27.986;2022-12-07T07:51:46;12.40;;;5.30;;
32826;SDS011;51059;42.058;27.986;2022-12-07T07:54:11;6.70;;;4.10;;
32826;SDS011;51059;42.058;27.986;2022-12-07T07:56:37;9.27;;;4.50;;
32826;SDS011;51059;42.058;27.986;2022-12-07T07:59:02;10.53;;;5.90;;
32826;SDS011;51059;42.058;27.986;2022-12-07T08:01:28;12.63;;;5.40;;
32826;SDS011;51059;42.058;27.986;2022-12-07T08:03:53;6.63;;;4.40;;
32826;SDS011;51059;42.058;27.986;2022-12-07T08:06:19;6.07;;;3.50;;
32826;SDS011;51059;42.058;27.986;2022-12-07T08:08:44;4.17;;;2.93;;
32826;SDS011;51059;42.058;27.986;2022-12-07T08:11:10;4.53;;;3.50;;
32826;SDS011;51059;42.058;27.986;2022-12-07T08:13:36;7.90;;;4.80;;
32826;SDS011;51059;42.058;27.986;2022-12-07T08:16:06;4.97;;;4.47;;
32826;SDS011;51059;42.058;27.986;2022-12-07T08:18:37;10.10;;;5.70;;
32826;SDS011;51059;42.058;27.986;2022-12-07T08:21:04;6.03;;;4.20;;
32826;SDS011;51059;42.058;27.986;2022-12-07T08:23:30;3.90;;;3.40;;
32826;SDS011;51059;42.058;27.986;2022-12-07T08:26:00;7.30;;;3.50;;
32826;SDS011;51059;42.058;27.986;2022-12-07T08:28:26;4.57;;;3.47;;
32826;SDS011;51059;42.058;27.986;2022-12-07T08:30:52;8.30;;;2.97;;
32826;SDS011;51059;42.058;27.986;2022-12-07T08:33:24;5.17;;;3.03;;
32826;SDS011;51059;42.058;27.986;2022-12-07T08:35:51;5.20;;;3.23;;
32826;SDS011;51059;42.058;27.986;2022-12-07T08:38:16;4.00;;;2.90;;
32826;SDS011;51059;42.058;27.986;2022-12-07T08:40:42;5.93;;;3.10;;
32826;SDS011;51059;42.058;27.986;2022-12-07T08:43:07;6.00;;;2.60;;
32826;SDS011;51059;42.058;27.986;2022-12-07T08:45:33;3.47;;;2.40;;
32826;SDS011;51059;42.058;27.986;2022-12-07T08:48:07;2.57;;;2.37;;
32826;SDS011;51059;42.058;27.986;2022-12-07T08:50:35;3.80;;;2.20;;
32826;SDS011;51059;42.058;27.986;2022-12-07T08:53:01;5.43;;;2.43;;
32826;SDS011;51059;42.058;27.986;2022-12-07T08:55:28;4.33;;;2.40;;
32826;SDS011;51059;42.058;27.986;2022-12-07T08:57:54;4.77;;;2.50;;
32826;SDS011;51059;42.058;27.986;2022-12-07T09:00:20;6.63;;;2.40;;
32826;SDS011;51059;42.058;27.986;2022-12-07T09:02:45;3.50;;;2.70;;
32826;SDS011;51059;42.058;27.986;2022-12-07T09:05:11;4.03;;;3.10;;
32826;SDS011;51059;42.058;27.986;2022-12-07T09:07:39;4.30;;;3.17;;
32826;SDS011;51059;42.058;27.986;2022-12-07T09:10:06;6.47;;;2.90;;
32826;SDS011;51059;42.058;27.986;2022-12-07T09:12:31;7.57;;;2.93;;
32826;SDS011;51059;42.058;27.986;2022-12-07T09:14:57;5.37;;;2.40;;
32826;SDS011;51059;42.058;27.986;2022-12-07T09:17:23;7.03;;;2.47;;
32826;SDS011;51059;42.058;27.986;2022-12-07T09:19:48;2.70;;;2.20;;
32826;SDS011;51059;42.058;27.986;2022-12-07T09:22:14;5.57;;;2.30;;
32826;SDS011;51059;42.058;27.986;2022-12-07T09:24:39;5.33;;;2.17;;
32826;SDS011;51059;42.058;27.986;2022-12-07T09:27:05;5.63;;;2.33;;
32826;SDS011;51059;42.058;27.986;2022-12-07T09:29:31;4.23;;;2.40;;
32826;SDS011;51059;42.058;27.986;2022-12-07T09:31:56;3.40;;;2.53;;
32826;SDS011;51059;42.058;27.986;2022-12-07T09:34:22;3.83;;;2.70;;
32826;SDS011;51059;42.058;27.986;2022-12-07T09:36:47;3.70;;;2.53;;
32826;SDS011;51059;42.058;27.986;2022-12-07T09:39:13;4.57;;;3.00;;
32826;SDS011;51059;42.058;27.986;2022-12-07T09:41:39;6.00;;;3.20;;
32826;SDS011;51059;42.058;27.986;2022-12-07T09:44:09;4.53;;;2.63;;
32826;SDS011;51059;42.058;27.986;2022-12-07T09:46:38;3.87;;;2.83;;
32826;SDS011;51059;42.058;27.986;2022-12-07T09:49:09;4.70;;;3.30;;
32826;SDS011;51059;42.058;27.986;2022-12-07T09:51:40;3.63;;;2.70;;
32826;SDS011;51059;42.058;27.986;2022-12-07T09:54:05;4.93;;;3.33;;
32826;SDS011;51059;42.058;27.986;2022-12-07T09:56:31;5.63;;;3.00;;
32826;SDS011;51059;42.058;27.986;2022-12-07T09:59:00;4.70;;;3.33;;
32826;SDS011;51059;42.058;27.986;2022-12-07T10:01:28;4.43;;;2.60;;
32826;SDS011;51059;42.058;27.986;2022-12-07T10:03:56;6.03;;;2.73;;
32826;SDS011;51059;42.058;27.986;2022-12-07T10:06:26;4.43;;;2.77;;
32826;SDS011;51059;42.058;27.986;2022-12-07T10:08:51;3.73;;;2.80;;
32826;SDS011;51059;42.058;27.986;2022-12-07T10:11:17;3.50;;;3.10;;
32826;SDS011;51059;42.058;27.986;2022-12-07T10:13:43;5.27;;;3.03;;
32826;SDS011;51059;42.058;27.986;2022-12-07T10:24:41;4.70;;;2.87;;
32826;SDS011;51059;42.058;27.986;2022-12-07T10:27:30;3.77;;;2.80;;
32826;SDS011;51059;42.058;27.986;2022-12-07T10:29:56;3.03;;;2.47;;
32826;SDS011;51059;42.058;27.986;2022-12-07T10:32:32;5.27;;;2.50;;
32826;SDS011;51059;42.058;27.986;2022-12-07T10:37:46;4.33;;;2.80;;
32826;SDS011;51059;42.058;27.986;2022-12-07T10:40:30;6.47;;;3.17;;
32826;SDS011;51059;42.058;27.986;2022-12-07T10:43:02;4.50;;;2.43;;
32826;SDS011;51059;42.058;27.986;2022-12-07T10:45:31;5.13;;;2.80;;
32826;SDS011;51059;42.058;27.986;2022-12-07T10:58:57;6.10;;;3.40;;
32826;SDS011;51059;42.058;27.986;2022-12-07T11:04:27;7.03;;;3.57;;
32826;SDS011;51059;42.058;27.986;2022-12-07T11:07:01;6.77;;;3.63;;
32826;SDS011;51059;42.058;27.986;2022-12-07T11:17:45;7.93;;;3.50;;
32826;SDS011;51059;42.058;27.986;2022-12-07T11:22:58;5.60;;;3.13;;
32826;SDS011;51059;42.058;27.986;2022-12-07T11:25:42;7.83;;;3.87;;
32826;SDS011;51059;42.058;27.986;2022-12-07T11:38:56;8.70;;;4.00;;
32826;SDS011;51059;42.058;27.986;2022-12-07T11:41:29;7.63;;;3.80;;
32826;SDS011;51059;42.058;27.986;2022-12-07T11:46:55;8.30;;;3.43;;
32826;SDS011;51059;42.058;27.986;2022-12-07T11:49:42;4.73;;;3.43;;
32826;SDS011;51059;42.058;27.986;2022-12-07T11:52:16;6.77;;;3.67;;
32826;SDS011;51059;42.058;27.986;2022-12-07T11:54:46;6.70;;;4.10;;
32826;SDS011;51059;42.058;27.986;2022-12-07T11:57:28;5.87;;;4.30;;
32826;SDS011;51059;42.058;27.986;2022-12-07T12:00:04;7.67;;;4.30;;
32826;SDS011;51059;42.058;27.986;2022-12-07T12:02:37;4.73;;;3.70;;
32826;SDS011;51059;42.058;27.986;2022-12-07T12:05:13;8.10;;;4.30;;
32826;SDS011;51059;42.058;27.986;2022-12-07T12:07:44;6.23;;;4.70;;
32826;SDS011;51059;42.058;27.986;2022-12-07T12:12:50;6.80;;;5.13;;
32826;SDS011;51059;42.058;27.986;2022-12-07T12:15:30;10.57;;;6.10;;
32826;SDS011;51059;42.058;27.986;2022-12-07T12:20:53;8.90;;;6.63;;
32826;SDS011;51059;42.058;27.986;2022-12-07T12:23:22;12.43;;;7.13;;
32826;SDS011;51059;42.058;27.986;2022-12-07T12:25:52;13.07;;;7.70;;
32826;SDS011;51059;42.058;27.986;2022-12-07T12:28:22;10.83;;;7.67;;
32826;SDS011;51059;42.058;27.986;2022-12-07T12:31:42;10.83;;;7.50;;
32826;SDS011;51059;42.058;27.986;2022-12-07T12:33:52;13.50;;;8.53;;
32826;SDS011;51059;42.058;27.986;2022-12-07T12:36:22;14.77;;;9.00;;
32826;SDS011;51059;42.058;27.986;2022-12-07T12:44:38;16.70;;;9.17;;
32826;SDS011;51059;42.058;27.986;2022-12-07T12:47:38;12.87;;;8.93;;
32826;SDS011;51059;42.058;27.986;2022-12-07T12:50:16;15.53;;;10.20;;
32826;SDS011;51059;42.058;27.986;2022-12-07T12:57:35;18.07;;;11.70;;
32826;SDS011;51059;42.058;27.986;2022-12-07T13:00:23;18.37;;;12.50;;
32826;SDS011;51059;42.058;27.986;2022-12-07T13:02:52;20.80;;;13.30;;
32826;SDS011;51059;42.058;27.986;2022-12-07T13:05:20;18.70;;;14.17;;
32826;SDS011;51059;42.058;27.986;2022-12-07T13:18:22;23.70;;;16.47;;
32826;SDS011;51059;42.058;27.986;2022-12-07T13:20:49;26.60;;;15.83;;
32826;SDS011;51059;42.058;27.986;2022-12-07T13:23:18;22.67;;;15.33;;
32826;SDS011;51059;42.058;27.986;2022-12-07T13:31:33;18.77;;;11.80;;
32826;SDS011;51059;42.058;27.986;2022-12-07T13:34:01;20.93;;;12.33;;
32826;SDS011;51059;42.058;27.986;2022-12-07T13:36:39;20.47;;;14.17;;
32826;SDS011;51059;42.058;27.986;2022-12-07T13:41:41;30.07;;;18.33;;
32826;SDS011;51059;42.058;27.986;2022-12-07T13:44:11;28.07;;;17.93;;
32826;SDS011;51059;42.058;27.986;2022-12-07T13:49:32;30.63;;;19.00;;
32826;SDS011;51059;42.058;27.986;2022-12-07T13:52:16;27.30;;;18.40;;
32826;SDS011;51059;42.058;27.986;2022-12-07T13:55:11;30.33;;;19.37;;
32826;SDS011;51059;42.058;27.986;2022-12-07T13:57:38;30.33;;;19.10;;
32826;SDS011;51059;42.058;27.986;2022-12-07T14:00:05;32.13;;;19.70;;
32826;SDS011;51059;42.058;27.986;2022-12-07T14:02:59;29.47;;;18.93;;
32826;SDS011;51059;42.058;27.986;2022-12-07T14:05:30;29.60;;;20.63;;
32826;SDS011;51059;42.058;27.986;2022-12-07T14:07:58;36.60;;;20.87;;
32826;SDS011;51059;42.058;27.986;2022-12-07T14:10:32;28.13;;;18.27;;
32826;SDS011;51059;42.058;27.986;2022-12-07T14:13:00;31.47;;;18.57;;
32826;SDS011;51059;42.058;27.986;2022-12-07T14:15:31;28.30;;;18.20;;
32826;SDS011;51059;42.058;27.986;2022-12-07T14:17:58;25.60;;;17.57;;
32826;SDS011;51059;42.058;27.986;2022-12-07T14:20:33;30.70;;;22.43;;
32826;SDS011;51059;42.058;27.986;2022-12-07T14:23:03;32.50;;;20.07;;
32826;SDS011;51059;42.058;27.986;2022-12-07T14:25:52;31.57;;;17.27;;
32826;SDS011;51059;42.058;27.986;2022-12-07T14:28:51;26.13;;;17.97;;
32826;SDS011;51059;42.058;27.986;2022-12-07T14:31:11;30.10;;;19.20;;
32826;SDS011;51059;42.058;27.986;2022-12-07T14:33:38;25.53;;;17.70;;
32826;SDS011;51059;42.058;27.986;2022-12-07T14:36:04;30.03;;;23.27;;
32826;SDS011;51059;42.058;27.986;2022-12-07T14:38:30;29.50;;;20.10;;
32826;SDS011;51059;42.058;27.986;2022-12-07T14:40:56;38.73;;;28.33;;
32826;SDS011;51059;42.058;27.986;2022-12-07T14:43:44;37.07;;;28.30;;
32826;SDS011;51059;42.058;27.986;2022-12-07T14:46:10;33.00;;;25.43;;
32826;SDS011;51059;42.058;27.986;2022-12-07T14:48:36;27.33;;;18.33;;
32826;SDS011;51059;42.058;27.986;2022-12-07T14:51:01;25.97;;;17.17;;
32826;SDS011;51059;42.058;27.986;2022-12-07T14:53:33;27.87;;;16.47;;
32826;SDS011;51059;42.058;27.986;2022-12-07T14:56:01;22.03;;;15.87;;
32826;SDS011;51059;42.058;27.986;2022-12-07T14:58:26;21.33;;;15.80;;
32826;SDS011;51059;42.058;27.986;2022-12-07T15:00:52;23.30;;;16.30;;
32826;SDS011;51059;42.058;27.986;2022-12-07T15:03:17;24.53;;;15.43;;
32826;SDS011;51059;42.058;27.986;2022-12-07T15:05:43;27.53;;;15.37;;
32826;SDS011;51059;42.058;27.986;2022-12-07T15:08:10;33.23;;;20.50;;
32826;SDS011;51059;42.058;27.986;2022-12-07T15:10:37;22.17;;;16.20;;
32826;SDS011;51059;42.058;27.986;2022-12-07T15:13:04;22.87;;;15.30;;
32826;SDS011;51059;42.058;27.986;2022-12-07T15:15:48;19.43;;;14.60;;
32826;SDS011;51059;42.058;27.986;2022-12-07T15:18:15;21.33;;;14.30;;
32826;SDS011;51059;42.058;27.986;2022-12-07T15:20:41;23.77;;;14.07;;
32826;SDS011;51059;42.058;27.986;2022-12-07T15:23:07;22.30;;;14.27;;
32826;SDS011;51059;42.058;27.986;2022-12-07T15:25:33;17.23;;;13.80;;
32826;SDS011;51059;42.058;27.986;2022-12-07T15:27:58;22.33;;;14.27;;
32826;SDS011;51059;42.058;27.986;2022-12-07T15:30:24;18.40;;;13.70;;
32826;SDS011;51059;42.058;27.986;2022-12-07T15:32:50;20.37;;;14.07;;
32826;SDS011;51059;42.058;27.986;2022-12-07T15:35:16;18.80;;;13.13;;
32826;SDS011;51059;42.058;27.986;2022-12-07T15:37:42;19.40;;;12.63;;
32826;SDS011;51059;42.058;27.986;2022-12-07T15:40:08;19.57;;;12.10;;
32826;SDS011;51059;42.058;27.986;2022-12-07T15:42:35;17.43;;;11.87;;
32826;SDS011;51059;42.058;27.986;2022-12-07T15:45:00;19.33;;;12.40;;
32826;SDS011;51059;42.058;27.986;2022-12-07T15:47:29;17.07;;;11.10;;
32826;SDS011;51059;42.058;27.986;2022-12-07T15:49:56;13.80;;;10.30;;
32826;SDS011;51059;42.058;27.986;2022-12-07T15:52:21;15.73;;;11.40;;
32826;SDS011;51059;42.058;27.986;2022-12-07T15:54:47;15.27;;;10.50;;
32826;SDS011;51059;42.058;27.986;2022-12-07T15:57:13;19.00;;;11.33;;
32826;SDS011;51059;42.058;27.986;2022-12-07T15:59:39;15.47;;;11.33;;
32826;SDS011;51059;42.058;27.986;2022-12-07T16:02:04;19.17;;;11.33;;
32826;SDS011;51059;42.058;27.986;2022-12-07T16:04:30;14.20;;;9.93;;
32826;SDS011;51059;42.058;27.986;2022-12-07T16:06:56;15.17;;;10.23;;
32826;SDS011;51059;42.058;27.986;2022-12-07T16:09:21;16.23;;;10.23;;
32826;SDS011;51059;42.058;27.986;2022-12-07T16:11:47;13.77;;;9.60;;
32826;SDS011;51059;42.058;27.986;2022-12-07T16:14:15;13.40;;;10.07;;
32826;SDS011;51059;42.058;27.986;2022-12-07T16:16:40;15.60;;;10.37;;
32826;SDS011;51059;42.058;27.986;2022-12-07T16:19:07;15.77;;;9.80;;
32826;SDS011;51059;42.058;27.986;2022-12-07T16:21:33;14.80;;;9.97;;
32826;SDS011;51059;42.058;27.986;2022-12-07T16:24:00;13.67;;;10.40;;
32826;SDS011;51059;42.058;27.986;2022-12-07T16:26:26;11.80;;;8.83;;